Time,TemperatureF,DewpointF,PressureIn,WindDirection,WindDirectionDegrees,WindSpeedMPH,WindSpeedGustMPH,Humidity,HourlyPrecipIn,Conditions,Clouds,dailyrainin,SoftwareType,DateUTC
2013-09-24 00:03:00,72.7,56.6,29.94,SSE,158,0.0,0.0,57,0.00,,---,0.00,VWS V14.01,2013-09-24 07:03:00,
2013-09-24 00:08:00,72.7,56.6,29.94,SE,135,0.9,0.9,57,0.00,,---,0.00,VWS V14.01,2013-09-24 07:08:00,
2013-09-24 00:13:00,72.7,56.1,29.94,NE,45,0.0,1.6,56,0.00,,---,0.00,VWS V14.01,2013-09-24 07:13:00,
2013-09-24 00:18:00,72.7,56.1,29.94,NNE,22,0.0,0.0,56,0.00,,---,0.00,VWS V14.01,2013-09-24 07:18:00,
2013-09-24 00:23:00,72.7,56.1,29.94,East,90,1.6,1.6,56,0.00,,---,0.00,VWS V14.01,2013-09-24 07:23:00,
2013-09-24 00:28:00,72.7,56.1,29.94,SE,135,1.6,1.6,56,0.00,,---,0.00,VWS V14.01,2013-09-24 07:28:00,
2013-09-24 00:33:00,72.7,56.1,29.94,ESE,112,2.0,2.0,56,0.00,,---,0.00,VWS V14.01,2013-09-24 07:33:00,
2013-09-24 00:38:00,72.5,55.9,29.94,ESE,112,1.3,1.3,56,0.00,,---,0.00,VWS V14.01,2013-09-24 07:38:00,
2013-09-24 00:43:00,72.5,55.9,29.94,South,180,0.0,0.0,56,0.00,,---,0.00,VWS V14.01,2013-09-24 07:43:00,
2013-09-24 00:48:00,72.5,55.9,29.94,ENE,68,0.0,0.0,56,0.00,,---,0.00,VWS V14.01,2013-09-24 07:48:00,
2013-09-24 00:53:00,72.5,55.9,29.94,ENE,68,0.0,0.0,56,0.00,,---,0.00,VWS V14.01,2013-09-24 07:53:00,
2013-09-24 00:58:00,72.5,55.4,29.94,ENE,68,0.0,0.0,55,0.00,,---,0.00,VWS V14.01,2013-09-24 07:58:00,
2013-09-24 01:03:00,72.5,55.4,29.94,ENE,68,0.0,0.0,55,0.00,,---,0.00,VWS V14.01,2013-09-24 08:03:00,
2013-09-24 01:08:00,72.5,55.4,29.94,ENE,68,0.0,0.0,55,0.00,,---,0.00,VWS V14.01,2013-09-24 08:08:00,
2013-09-24 01:13:00,72.5,55.4,29.94,ENE,68,0.0,0.0,55,0.00,,---,0.00,VWS V14.01,2013-09-24 08:13:00,
2013-09-24 01:18:00,72.3,55.3,29.94,ENE,68,1.3,1.3,55,0.00,,---,0.00,VWS V14.01,2013-09-24 08:18:00,
2013-09-24 01:23:00,72.3,55.3,29.91,SE,135,2.0,2.0,55,0.00,,---,0.00,VWS V14.01,2013-09-24 08:23:00,
2013-09-24 01:28:00,72.3,55.3,29.91,NE,45,0.0,0.0,55,0.00,,---,0.00,VWS V14.01,2013-09-24 08:28:00,
2013-09-24 01:33:00,72.3,55.3,29.91,ENE,68,0.0,0.0,55,0.00,,---,0.00,VWS V14.01,2013-09-24 08:33:00,
2013-09-24 01:38:00,72.3,55.3,29.91,ENE,68,0.0,0.0,55,0.00,,---,0.00,VWS V14.01,2013-09-24 08:38:00,
2013-09-24 01:43:00,72.3,54.8,29.91,NNE,22,0.0,0.0,54,0.00,,---,0.00,VWS V14.01,2013-09-24 08:43:00,
2013-09-24 01:48:00,72.3,54.8,29.91,NNW,338,0.0,0.0,54,0.00,,---,0.00,VWS V14.01,2013-09-24 08:48:00,
2013-09-24 01:53:00,72.1,54.6,29.91,NE,45,0.0,0.0,54,0.00,,---,0.00,VWS V14.01,2013-09-24 08:53:00,
2013-09-24 01:58:00,72.1,54.6,29.91,ENE,68,0.0,0.0,54,0.00,,---,0.00,VWS V14.01,2013-09-24 08:58:00,
2013-09-24 02:03:00,72.1,54.6,29.91,ENE,68,0.0,0.9,54,0.00,,---,0.00,VWS V14.01,2013-09-24 09:03:00,
2013-09-24 02:08:00,72.1,54.6,29.91,East,90,0.0,0.0,54,0.00,,---,0.00,VWS V14.01,2013-09-24 09:08:00,
2013-09-24 02:13:00,72.1,54.6,29.91,East,90,0.0,0.0,54,0.00,,---,0.00,VWS V14.01,2013-09-24 09:13:00,
2013-09-24 02:18:00,72.1,54.6,29.91,ENE,68,0.0,0.0,54,0.00,,---,0.00,VWS V14.01,2013-09-24 09:18:00,
2013-09-24 02:23:00,72.1,54.6,29.91,East,90,0.0,0.0,54,0.00,,---,0.00,VWS V14.01,2013-09-24 09:23:00,
2013-09-24 02:28:00,72.1,54.6,29.91,East,90,0.0,0.0,54,0.00,,---,0.00,VWS V14.01,2013-09-24 09:28:00,
2013-09-24 02:33:00,72.0,54.4,29.91,East,90,1.6,1.6,54,0.00,,---,0.00,VWS V14.01,2013-09-24 09:33:00,
2013-09-24 02:38:00,72.0,54.4,29.91,East,90,0.0,0.0,54,0.00,,---,0.00,VWS V14.01,2013-09-24 09:38:00,
2013-09-24 02:43:00,72.0,53.9,29.91,East,90,0.0,0.0,53,0.00,,---,0.00,VWS V14.01,2013-09-24 09:43:00,
2013-09-24 02:48:00,72.0,53.9,29.91,East,90,1.3,1.3,53,0.00,,---,0.00,VWS V14.01,2013-09-24 09:48:00,
2013-09-24 02:53:00,72.0,53.9,29.91,NW,315,1.6,1.6,53,0.00,,---,0.00,VWS V14.01,2013-09-24 09:53:00,
2013-09-24 02:58:00,72.0,53.9,29.91,NE,45,0.0,1.6,53,0.00,,---,0.00,VWS V14.01,2013-09-24 09:58:00,
2013-09-24 03:03:00,72.0,53.9,29.91,ENE,68,0.0,0.0,53,0.00,,---,0.00,VWS V14.01,2013-09-24 10:03:00,
2013-09-24 03:08:00,71.8,53.8,29.91,ENE,68,1.3,1.3,53,0.00,,---,0.00,VWS V14.01,2013-09-24 10:08:00,
2013-09-24 03:13:00,71.8,53.8,29.91,NW,315,0.0,0.0,53,0.00,,---,0.00,VWS V14.01,2013-09-24 10:13:00,
2013-09-24 03:18:00,71.8,53.8,29.91,NW,315,0.0,0.0,53,0.00,,---,0.00,VWS V14.01,2013-09-24 10:18:00,
2013-09-24 03:23:00,71.8,53.8,29.91,NW,315,0.0,0.0,53,0.00,,---,0.00,VWS V14.01,2013-09-24 10:23:00,
2013-09-24 03:28:00,71.8,53.8,29.91,NW,315,0.0,0.0,53,0.00,,---,0.00,VWS V14.01,2013-09-24 10:28:00,
2013-09-24 03:33:00,71.8,53.8,29.91,NE,45,0.0,0.0,53,0.00,,---,0.00,VWS V14.01,2013-09-24 10:33:00,
2013-09-24 03:38:00,71.8,53.8,29.91,NE,45,0.0,0.0,53,0.00,,---,0.00,VWS V14.01,2013-09-24 10:38:00,
2013-09-24 03:43:00,71.6,53.6,29.91,NE,45,0.0,0.0,53,0.00,,---,0.00,VWS V14.01,2013-09-24 10:43:00,
2013-09-24 03:48:00,71.6,53.6,29.91,SE,135,2.0,2.0,53,0.00,,---,0.00,VWS V14.01,2013-09-24 10:48:00,
2013-09-24 03:53:00,71.6,53.1,29.91,ESE,112,1.6,2.0,52,0.00,,---,0.00,VWS V14.01,2013-09-24 10:53:00,
2013-09-24 03:58:00,71.6,53.1,29.91,SE,135,0.0,0.0,52,0.00,,---,0.00,VWS V14.01,2013-09-24 10:58:00,
2013-09-24 04:03:00,71.6,53.1,29.91,SE,135,0.0,0.0,52,0.00,,---,0.00,VWS V14.01,2013-09-24 11:03:00,
2013-09-24 04:08:00,71.6,53.1,29.91,SE,135,1.3,2.2,52,0.00,,---,0.00,VWS V14.01,2013-09-24 11:08:00,
2013-09-24 04:14:00,71.4,53.4,29.91,SE,135,0.0,0.0,53,0.00,,---,0.00,VWS V14.01,2013-09-24 11:14:00,
2013-09-24 04:19:00,71.4,53.4,29.91,SE,135,0.0,0.0,53,0.00,,---,0.00,VWS V14.01,2013-09-24 11:19:00,
2013-09-24 04:24:00,71.4,53.4,29.91,ENE,68,0.0,0.0,53,0.00,,---,0.00,VWS V14.01,2013-09-24 11:24:00,
2013-09-24 04:29:00,71.4,52.9,29.91,ENE,68,0.0,0.0,52,0.00,,---,0.00,VWS V14.01,2013-09-24 11:29:00,
2013-09-24 04:34:00,71.4,52.9,29.91,East,90,2.0,2.0,52,0.00,,---,0.00,VWS V14.01,2013-09-24 11:34:00,
2013-09-24 04:39:00,71.4,52.9,29.91,East,90,1.3,2.5,52,0.00,,---,0.00,VWS V14.01,2013-09-24 11:39:00,
2013-09-24 04:44:00,71.4,52.9,29.91,ESE,112,1.6,1.6,52,0.00,,---,0.00,VWS V14.01,2013-09-24 11:44:00,
2013-09-24 04:49:00,71.2,52.7,29.91,ESE,112,0.0,0.0,52,0.00,,---,0.00,VWS V14.01,2013-09-24 11:49:00,
2013-09-24 04:54:00,71.2,52.7,29.91,ESE,112,0.0,0.0,52,0.00,,---,0.00,VWS V14.01,2013-09-24 11:54:00,
2013-09-24 04:59:00,71.2,52.7,29.91,East,90,0.9,0.9,52,0.00,,---,0.00,VWS V14.01,2013-09-24 11:59:00,
2013-09-24 05:04:00,71.2,52.7,29.91,ESE,112,1.6,1.6,52,0.00,,---,0.00,VWS V14.01,2013-09-24 12:04:00,
2013-09-24 05:09:00,71.2,52.7,29.91,ESE,112,0.0,0.0,52,0.00,,---,0.00,VWS V14.01,2013-09-24 12:09:00,
2013-09-24 05:14:00,71.2,52.7,29.91,ENE,68,1.1,1.1,52,0.00,,---,0.00,VWS V14.01,2013-09-24 12:14:00,
2013-09-24 05:19:00,71.2,52.7,29.91,East,90,1.1,1.1,52,0.00,,---,0.00,VWS V14.01,2013-09-24 12:19:00,
2013-09-24 05:24:00,71.1,52.6,29.91,ENE,68,0.0,1.1,52,0.00,,---,0.00,VWS V14.01,2013-09-24 12:24:00,
2013-09-24 05:29:00,71.1,52.6,29.91,East,90,0.0,0.0,52,0.00,,---,0.00,VWS V14.01,2013-09-24 12:29:00,
2013-09-24 05:34:00,71.1,52.6,29.91,East,90,1.6,1.6,52,0.00,,---,0.00,VWS V14.01,2013-09-24 12:34:00,
2013-09-24 05:39:00,71.1,52.6,29.91,East,90,1.3,1.3,52,0.00,,---,0.00,VWS V14.01,2013-09-24 12:39:00,
2013-09-24 05:44:00,71.1,52.6,29.91,East,90,1.3,1.3,52,0.00,,---,0.00,VWS V14.01,2013-09-24 12:44:00,
2013-09-24 05:49:00,71.1,52.6,29.91,South,180,0.0,0.0,52,0.00,,---,0.00,VWS V14.01,2013-09-24 12:49:00,
2013-09-24 05:54:00,71.1,52.6,29.91,East,90,0.0,0.0,52,0.00,,---,0.00,VWS V14.01,2013-09-24 12:54:00,
2013-09-24 05:59:00,70.9,52.4,29.91,East,90,1.3,1.3,52,0.00,,---,0.00,VWS V14.01,2013-09-24 12:59:00,
2013-09-24 06:04:00,70.9,52.4,29.91,East,90,1.3,1.3,52,0.00,,---,0.00,VWS V14.01,2013-09-24 13:04:00,
2013-09-24 06:09:00,70.9,52.4,29.91,ENE,68,0.0,0.0,52,0.00,,---,0.00,VWS V14.01,2013-09-24 13:09:00,
2013-09-24 06:14:00,70.9,52.4,29.91,East,90,0.9,0.9,52,0.00,,---,0.00,VWS V14.01,2013-09-24 13:14:00,
2013-09-24 06:19:00,70.9,52.4,29.91,North,0,0.0,0.0,52,0.00,,---,0.00,VWS V14.01,2013-09-24 13:19:00,
2013-09-24 06:24:00,70.7,52.2,29.94,NNE,22,0.0,0.0,52,0.00,,---,0.00,VWS V14.01,2013-09-24 13:24:00,
2013-09-24 06:29:00,70.7,52.2,29.94,NNE,22,0.0,0.0,52,0.00,,---,0.00,VWS V14.01,2013-09-24 13:29:00,
2013-09-24 06:34:00,70.7,52.2,29.94,NNE,22,0.0,0.0,52,0.00,,---,0.00,VWS V14.01,2013-09-24 13:34:00,
2013-09-24 06:39:00,70.7,52.2,29.91,NNE,22,0.0,0.0,52,0.00,,---,0.00,VWS V14.01,2013-09-24 13:39:00,
2013-09-24 06:44:00,70.7,52.2,29.91,NNE,22,0.0,0.0,52,0.00,,---,0.00,VWS V14.01,2013-09-24 13:44:00,
2013-09-24 06:49:00,70.3,51.4,29.91,NE,45,0.0,0.0,51,0.00,,---,0.00,VWS V14.01,2013-09-24 13:49:00,
2013-09-24 06:54:00,69.6,50.7,29.94,NE,45,0.0,0.0,51,0.00,,---,0.00,VWS V14.01,2013-09-24 13:54:00,
2013-09-24 06:59:00,69.3,50.4,29.94,ENE,68,0.0,0.0,51,0.00,,---,0.00,VWS V14.01,2013-09-24 13:59:00,
2013-09-24 07:04:00,68.9,50.0,29.94,ENE,68,0.0,0.0,51,0.00,,---,0.00,VWS V14.01,2013-09-24 14:04:00,
2013-09-24 07:09:00,68.9,50.6,29.91,ENE,68,1.6,1.6,52,0.00,,---,0.00,VWS V14.01,2013-09-24 14:09:00,
2013-09-24 07:14:00,68.7,50.4,29.91,ESE,112,1.1,1.1,52,0.00,,---,0.00,VWS V14.01,2013-09-24 14:14:00,
2013-09-24 07:19:00,68.7,50.4,29.91,ENE,68,1.1,1.1,52,0.00,,---,0.00,VWS V14.01,2013-09-24 14:19:00,
2013-09-24 07:24:00,68.5,50.2,29.94,East,90,0.0,0.0,52,0.00,,---,0.00,VWS V14.01,2013-09-24 14:24:00,
2013-09-24 07:29:00,68.5,50.2,29.94,ESE,112,1.3,1.3,52,0.00,,---,0.00,VWS V14.01,2013-09-24 14:29:00,
2013-09-24 07:34:00,68.4,50.1,29.94,East,90,0.0,0.0,52,0.00,,---,0.00,VWS V14.01,2013-09-24 14:34:00,
2013-09-24 07:39:00,68.4,50.1,29.94,ENE,68,0.0,0.0,52,0.00,,---,0.00,VWS V14.01,2013-09-24 14:39:00,
2013-09-24 07:44:00,68.4,50.1,29.94,NE,45,0.0,0.0,52,0.00,,---,0.00,VWS V14.01,2013-09-24 14:44:00,
2013-09-24 07:49:00,68.4,50.1,29.94,NE,45,0.0,0.0,52,0.00,,---,0.00,VWS V14.01,2013-09-24 14:49:00,
2013-09-24 07:54:00,66.4,48.8,29.94,SE,135,0.0,1.6,53,0.00,,---,0.00,VWS V14.01,2013-09-24 14:54:00,
2013-09-24 07:59:00,61.7,45.9,29.94,ESE,112,0.0,0.0,56,0.00,,---,0.00,VWS V14.01,2013-09-24 14:59:00,
2013-09-24 08:04:00,60.1,45.3,29.94,ESE,112,0.0,0.0,58,0.00,,---,0.00,VWS V14.01,2013-09-24 15:04:00,
2013-09-24 08:09:00,59.2,45.3,29.94,ESE,112,0.0,0.0,60,0.00,,---,0.00,VWS V14.01,2013-09-24 15:09:00,
2013-09-24 08:14:00,58.8,45.4,29.94,ESE,112,0.0,0.0,61,0.00,,---,0.00,VWS V14.01,2013-09-24 15:14:00,
2013-09-24 08:19:00,58.3,45.3,29.94,ESE,112,0.0,0.0,62,0.00,,---,0.00,VWS V14.01,2013-09-24 15:19:00,
2013-09-24 08:24:00,57.9,45.8,29.94,ESE,112,0.0,0.0,64,0.00,,---,0.00,VWS V14.01,2013-09-24 15:24:00,
2013-09-24 08:29:00,57.6,45.9,29.94,ESE,112,0.0,0.0,65,0.00,,---,0.00,VWS V14.01,2013-09-24 15:29:00,
2013-09-24 08:34:00,57.6,46.3,29.94,ESE,112,0.0,0.0,66,0.00,,---,0.00,VWS V14.01,2013-09-24 15:34:00,
2013-09-24 08:39:00,57.4,46.1,29.94,SE,135,0.0,0.0,66,0.00,,---,0.00,VWS V14.01,2013-09-24 15:39:00,
2013-09-24 08:44:00,57.4,46.5,29.94,ESE,112,0.0,0.0,67,0.00,,---,0.00,VWS V14.01,2013-09-24 15:44:00,
2013-09-24 08:49:00,57.4,46.5,29.94,SE,135,2.5,2.5,67,0.00,,---,0.00,VWS V14.01,2013-09-24 15:49:00,
2013-09-24 08:54:00,57.4,46.9,29.94,NW,315,1.3,1.3,68,0.00,,---,0.00,VWS V14.01,2013-09-24 15:54:00,
2013-09-24 08:59:00,57.6,47.1,29.94,North,0,0.0,2.0,68,0.00,,---,0.00,VWS V14.01,2013-09-24 15:59:00,
2013-09-24 09:04:00,57.6,47.1,29.94,West,270,2.9,2.9,68,0.00,,---,0.00,VWS V14.01,2013-09-24 16:04:00,
2013-09-24 09:09:00,57.9,47.8,29.94,West,270,2.0,3.8,69,0.00,,---,0.00,VWS V14.01,2013-09-24 16:09:00,
2013-09-24 09:14:00,58.1,48.0,29.94,NW,315,1.6,1.6,69,0.00,,---,0.00,VWS V14.01,2013-09-24 16:14:00,
2013-09-24 09:19:00,58.1,48.0,29.94,NNW,338,2.5,2.5,69,0.00,,---,0.00,VWS V14.01,2013-09-24 16:19:00,
2013-09-24 09:24:00,58.5,48.3,29.94,NNE,22,2.9,3.1,69,0.00,,---,0.00,VWS V14.01,2013-09-24 16:24:00,
2013-09-24 09:29:00,58.8,48.7,29.94,WNW,292,1.6,2.0,69,0.00,,---,0.00,VWS V14.01,2013-09-24 16:29:00,
2013-09-24 09:35:00,59.0,48.5,29.94,West,270,2.5,2.9,68,0.00,,---,0.00,VWS V14.01,2013-09-24 16:35:00,
2013-09-24 09:40:00,59.5,49.0,29.94,SE,135,1.6,3.1,68,0.00,,---,0.00,VWS V14.01,2013-09-24 16:40:00,
2013-09-24 09:45:00,60.1,49.1,29.94,NNW,338,4.0,4.0,67,0.00,,---,0.00,VWS V14.01,2013-09-24 16:45:00,
2013-09-24 09:50:00,60.1,49.1,29.94,NNW,338,1.6,4.0,67,0.00,,---,0.00,VWS V14.01,2013-09-24 16:50:00,
2013-09-24 09:55:00,60.3,49.3,29.94,NNW,338,4.3,4.3,67,0.00,,---,0.00,VWS V14.01,2013-09-24 16:55:00,
2013-09-24 10:00:00,60.6,49.6,29.94,NNW,338,4.3,4.3,67,0.00,,---,0.00,VWS V14.01,2013-09-24 17:00:00,
2013-09-24 10:05:00,61.0,49.5,29.94,NNE,22,5.6,5.6,66,0.00,,---,0.00,VWS V14.01,2013-09-24 17:05:00,
2013-09-24 10:10:00,61.5,50.1,29.97,NNW,338,3.6,7.2,66,0.00,,---,0.00,VWS V14.01,2013-09-24 17:10:00,
2013-09-24 10:15:00,61.9,50.4,29.97,NNW,338,5.4,8.5,66,0.00,,---,0.00,VWS V14.01,2013-09-24 17:15:00,
2013-09-24 10:20:00,62.1,50.2,29.97,NW,315,10.1,10.1,65,0.00,,---,0.00,VWS V14.01,2013-09-24 17:20:00,
2013-09-24 10:25:00,62.6,50.3,29.94,North,0,5.8,5.8,64,0.00,,---,0.00,VWS V14.01,2013-09-24 17:25:00,
2013-09-24 10:30:00,63.0,49.8,29.94,NNW,338,6.3,9.2,62,0.00,,---,0.00,VWS V14.01,2013-09-24 17:30:00,
2013-09-24 10:35:00,63.5,50.3,29.94,NW,315,8.7,8.7,62,0.00,,---,0.00,VWS V14.01,2013-09-24 17:35:00,
2013-09-24 10:40:00,63.9,50.6,29.94,NW,315,2.7,4.3,62,0.00,,---,0.00,VWS V14.01,2013-09-24 17:40:00,
2013-09-24 10:45:00,64.2,50.5,29.94,WNW,292,6.5,9.6,61,0.00,,---,0.00,VWS V14.01,2013-09-24 17:45:00,
2013-09-24 10:50:00,64.4,50.2,29.94,WNW,292,9.8,9.8,60,0.00,,---,0.00,VWS V14.01,2013-09-24 17:50:00,
2013-09-24 10:55:00,64.8,50.1,29.94,WNW,292,5.8,12.1,59,0.00,,---,0.00,VWS V14.01,2013-09-24 17:55:00,
2013-09-24 11:00:00,65.1,50.9,29.94,NNW,338,5.8,5.8,60,0.00,,---,0.00,VWS V14.01,2013-09-24 18:00:00,
2013-09-24 11:05:00,65.7,51.0,29.94,West,270,6.3,9.6,59,0.00,,---,0.00,VWS V14.01,2013-09-24 18:05:00,
2013-09-24 11:10:00,65.8,51.1,29.94,NW,315,4.3,5.6,59,0.00,,---,0.00,VWS V14.01,2013-09-24 18:10:00,
2013-09-24 11:15:00,66.2,51.0,29.94,North,0,6.5,6.5,58,0.00,,---,0.00,VWS V14.01,2013-09-24 18:15:00,
2013-09-24 11:20:00,66.4,51.2,29.94,NNW,338,9.0,9.0,58,0.00,,---,0.00,VWS V14.01,2013-09-24 18:20:00,
2013-09-24 11:25:00,66.9,51.2,29.94,West,270,4.7,8.1,57,0.00,,---,0.00,VWS V14.01,2013-09-24 18:25:00,
2013-09-24 11:30:00,67.1,51.4,29.94,West,270,5.6,5.6,57,0.00,,---,0.00,VWS V14.01,2013-09-24 18:30:00,
2013-09-24 11:35:00,67.6,51.4,29.94,WNW,292,5.8,5.8,56,0.00,,---,0.00,VWS V14.01,2013-09-24 18:35:00,
2013-09-24 11:40:00,67.8,51.6,29.94,NW,315,4.0,4.0,56,0.00,,---,0.00,VWS V14.01,2013-09-24 18:40:00,
2013-09-24 11:45:00,68.4,50.6,29.94,NNW,338,6.0,8.1,53,0.00,,---,0.00,VWS V14.01,2013-09-24 18:45:00,
2013-09-24 11:50:00,68.7,51.4,29.94,NW,315,1.1,5.8,54,0.00,,---,0.00,VWS V14.01,2013-09-24 18:50:00,
2013-09-24 11:55:00,69.1,51.8,29.94,West,270,10.1,10.1,54,0.00,,---,0.00,VWS V14.01,2013-09-24 18:55:00,
2013-09-24 12:00:00,69.6,51.8,29.94,NNW,338,7.6,7.6,53,0.00,,---,0.00,VWS V14.01,2013-09-24 19:00:00,
2013-09-24 12:05:00,70.0,51.6,29.94,West,270,3.1,7.6,52,0.00,,---,0.00,VWS V14.01,2013-09-24 19:05:00,
2013-09-24 12:10:00,70.9,51.9,29.94,North,0,8.1,8.5,51,0.00,,---,0.00,VWS V14.01,2013-09-24 19:10:00,
2013-09-24 12:15:00,71.4,52.4,29.94,WNW,292,3.8,8.5,51,0.00,,---,0.00,VWS V14.01,2013-09-24 19:15:00,
2013-09-24 12:20:00,72.0,52.3,29.94,NNW,338,3.4,3.4,50,0.00,,---,0.00,VWS V14.01,2013-09-24 19:20:00,
2013-09-24 12:25:00,72.3,52.1,29.94,NE,45,4.9,13.0,49,0.00,,---,0.00,VWS V14.01,2013-09-24 19:25:00,
2013-09-24 12:30:00,73.0,52.8,29.94,NW,315,3.6,6.0,49,0.00,,---,0.00,VWS V14.01,2013-09-24 19:30:00,
2013-09-24 12:35:00,73.6,52.7,29.94,WNW,292,6.5,6.5,48,0.00,,---,0.00,VWS V14.01,2013-09-24 19:35:00,
2013-09-24 12:40:00,74.1,52.6,29.94,WNW,292,7.6,9.8,47,0.00,,---,0.00,VWS V14.01,2013-09-24 19:40:00,
2013-09-24 12:45:00,74.5,53.0,29.94,WNW,292,6.0,6.0,47,0.00,,---,0.00,VWS V14.01,2013-09-24 19:45:00,
2013-09-24 12:50:00,74.8,53.8,29.94,NNW,338,2.9,2.9,48,0.00,,---,0.00,VWS V14.01,2013-09-24 19:50:00,
2013-09-24 12:55:00,75.4,53.8,29.94,WNW,292,5.4,6.5,47,0.00,,---,0.00,VWS V14.01,2013-09-24 19:55:00,
2013-09-24 13:00:00,75.6,52.1,29.94,NW,315,3.4,6.3,44,0.00,,---,0.00,VWS V14.01,2013-09-24 20:00:00,
2013-09-24 13:05:00,76.3,52.2,29.91,NNW,338,1.6,4.3,43,0.00,,---,0.00,VWS V14.01,2013-09-24 20:05:00,
2013-09-24 13:10:00,77.0,54.7,29.91,WNW,292,7.8,7.8,46,0.00,,---,0.00,VWS V14.01,2013-09-24 20:10:00,
2013-09-24 13:15:00,77.4,54.4,29.91,NW,315,3.6,4.9,45,0.00,,---,0.00,VWS V14.01,2013-09-24 20:15:00,
2013-09-24 13:20:00,77.7,54.7,29.91,WNW,292,3.1,8.1,45,0.00,,---,0.00,VWS V14.01,2013-09-24 20:20:00,
2013-09-24 13:25:00,77.9,54.9,29.91,NNW,338,6.3,7.2,45,0.00,,---,0.00,VWS V14.01,2013-09-24 20:25:00,
2013-09-24 13:30:00,78.3,54.6,29.91,NW,315,3.6,7.6,44,0.00,,---,0.00,VWS V14.01,2013-09-24 20:30:00,
2013-09-24 13:35:00,78.8,54.4,29.91,West,270,4.3,7.6,43,0.00,,---,0.00,VWS V14.01,2013-09-24 20:35:00,
2013-09-24 13:40:00,79.0,54.6,29.91,NW,315,6.0,7.4,43,0.00,,---,0.00,VWS V14.01,2013-09-24 20:40:00,
2013-09-24 13:45:00,79.3,54.9,29.91,WNW,292,3.4,8.1,43,0.00,,---,0.00,VWS V14.01,2013-09-24 20:45:00,
2013-09-24 13:50:00,79.7,55.2,29.91,West,270,3.4,8.5,43,0.00,,---,0.00,VWS V14.01,2013-09-24 20:50:00,
2013-09-24 13:55:00,79.9,55.4,29.91,NNE,22,2.5,5.8,43,0.00,,---,0.00,VWS V14.01,2013-09-24 20:55:00,
2013-09-24 14:00:00,80.2,55.7,29.91,NNW,338,3.1,8.1,43,0.00,,---,0.00,VWS V14.01,2013-09-24 21:00:00,
2013-09-24 14:05:00,80.4,55.2,29.91,North,0,7.8,7.8,42,0.00,,---,0.00,VWS V14.01,2013-09-24 21:05:00,
2013-09-24 14:10:00,81.0,55.1,29.91,WNW,292,4.9,6.3,41,0.00,,---,0.00,VWS V14.01,2013-09-24 21:10:00,
2013-09-24 14:15:00,81.0,54.4,29.91,SE,135,3.4,6.5,40,0.00,,---,0.00,VWS V14.01,2013-09-24 21:15:00,
2013-09-24 14:20:00,81.3,55.4,29.88,NNE,22,5.4,7.6,41,0.00,,---,0.00,VWS V14.01,2013-09-24 21:20:00,
2013-09-24 14:25:00,81.5,55.5,29.88,NW,315,2.9,5.8,41,0.00,,---,0.00,VWS V14.01,2013-09-24 21:25:00,
2013-09-24 14:30:00,81.5,54.2,29.88,West,270,1.3,6.5,39,0.00,,---,0.00,VWS V14.01,2013-09-24 21:30:00,
2013-09-24 14:35:00,82.0,55.4,29.88,NNW,338,4.0,6.9,40,0.00,,---,0.00,VWS V14.01,2013-09-24 21:35:00,
2013-09-24 14:40:00,82.4,55.7,29.88,NW,315,8.5,8.5,40,0.00,,---,0.00,VWS V14.01,2013-09-24 21:40:00,
2013-09-24 14:45:00,82.2,55.5,29.88,NNE,22,5.8,7.2,40,0.00,,---,0.00,VWS V14.01,2013-09-24 21:45:00,
2013-09-24 14:50:00,82.6,55.8,29.91,NNW,338,5.6,7.8,40,0.00,,---,0.00,VWS V14.01,2013-09-24 21:50:00,
2013-09-24 14:56:00,82.8,56.0,29.91,NW,315,3.8,5.8,40,0.00,,---,0.00,VWS V14.01,2013-09-24 21:56:00,
2013-09-24 15:01:00,82.9,56.2,29.91,NW,315,5.6,6.3,40,0.00,,---,0.00,VWS V14.01,2013-09-24 22:01:00,
2013-09-24 15:06:00,83.1,55.6,29.88,NW,315,5.8,5.8,39,0.00,,---,0.00,VWS V14.01,2013-09-24 22:06:00,
2013-09-24 15:11:00,83.7,56.1,29.88,West,270,7.2,7.2,39,0.00,,---,0.00,VWS V14.01,2013-09-24 22:11:00,
2013-09-24 15:16:00,83.7,56.1,29.88,NNW,338,7.8,8.7,39,0.00,,---,0.00,VWS V14.01,2013-09-24 22:16:00,
2013-09-24 15:21:00,83.5,55.2,29.88,NNW,338,2.5,3.6,38,0.00,,---,0.00,VWS V14.01,2013-09-24 22:21:00,
2013-09-24 15:26:00,83.3,54.3,29.88,WNW,292,3.6,6.9,37,0.00,,---,0.00,VWS V14.01,2013-09-24 22:26:00,
2013-09-24 15:31:00,82.8,52.3,29.88,NW,315,5.4,8.5,35,0.00,,---,0.00,VWS V14.01,2013-09-24 22:31:00,
2013-09-24 15:36:00,82.2,52.6,29.88,ESE,112,6.3,6.3,36,0.00,,---,0.00,VWS V14.01,2013-09-24 22:36:00,
2013-09-24 15:41:00,81.9,52.3,29.88,NW,315,6.3,6.3,36,0.00,,---,0.00,VWS V14.01,2013-09-24 22:41:00,
2013-09-24 15:46:00,82.0,51.7,29.88,West,270,5.6,6.7,35,0.00,,---,0.00,VWS V14.01,2013-09-24 22:46:00,
2013-09-24 15:51:00,81.3,50.3,29.88,West,270,8.7,8.7,34,0.00,,---,0.00,VWS V14.01,2013-09-24 22:51:00,
2013-09-24 15:56:00,82.2,52.6,29.88,West,270,9.8,9.8,36,0.00,,---,0.00,VWS V14.01,2013-09-24 22:56:00,
2013-09-24 16:01:00,82.2,51.9,29.88,WNW,292,6.0,6.0,35,0.00,,---,0.00,VWS V14.01,2013-09-24 23:01:00,
2013-09-24 16:06:00,81.7,51.4,29.88,South,180,5.6,10.7,35,0.00,,---,0.00,VWS V14.01,2013-09-24 23:06:00,
2013-09-24 16:11:00,80.6,50.5,29.88,SE,135,3.4,9.2,35,0.00,,---,0.00,VWS V14.01,2013-09-24 23:11:00,
2013-09-24 16:16:00,81.1,50.9,29.88,SE,135,6.3,7.6,35,0.00,,---,0.00,VWS V14.01,2013-09-24 23:16:00,
2013-09-24 16:21:00,81.1,51.7,29.88,West,270,1.6,5.8,36,0.00,,---,0.00,VWS V14.01,2013-09-24 23:21:00,
2013-09-24 16:26:00,82.0,53.2,29.88,NNW,338,6.0,6.0,37,0.00,,---,0.00,VWS V14.01,2013-09-24 23:26:00,
2013-09-24 16:31:00,81.7,52.9,29.88,West,270,6.3,7.6,37,0.00,,---,0.00,VWS V14.01,2013-09-24 23:31:00,
2013-09-24 16:36:00,81.0,50.8,29.88,SE,135,6.5,6.7,35,0.00,,---,0.00,VWS V14.01,2013-09-24 23:36:00,
2013-09-24 16:41:00,79.9,50.6,29.88,West,270,3.6,6.3,36,0.00,,---,0.00,VWS V14.01,2013-09-24 23:41:00,
2013-09-24 16:46:00,80.1,51.5,29.88,South,180,4.9,5.6,37,0.00,,---,0.00,VWS V14.01,2013-09-24 23:46:00,
2013-09-24 16:51:00,79.7,51.2,29.88,NNW,338,5.6,6.5,37,0.00,,---,0.00,VWS V14.01,2013-09-24 23:51:00,
2013-09-24 16:56:00,78.8,51.1,29.88,West,270,5.4,7.6,38,0.00,,---,0.00,VWS V14.01,2013-09-24 23:56:00,
2013-09-24 17:01:00,78.8,51.1,29.88,NW,315,2.7,7.4,38,0.00,,---,0.00,VWS V14.01,2013-09-25 00:01:00,
2013-09-24 17:06:00,78.4,50.8,29.88,West,270,3.6,10.1,38,0.00,,---,0.00,VWS V14.01,2013-09-25 00:06:00,
2013-09-24 17:11:00,78.3,51.3,29.88,South,180,2.9,6.3,39,0.00,,---,0.00,VWS V14.01,2013-09-25 00:11:00,
2013-09-24 17:16:00,77.9,51.0,29.88,WNW,292,5.8,5.8,39,0.00,,---,0.00,VWS V14.01,2013-09-25 00:16:00,
2013-09-24 17:21:00,77.7,51.5,29.88,North,0,3.1,7.6,40,0.00,,---,0.00,VWS V14.01,2013-09-25 00:21:00,
2013-09-24 17:26:00,77.7,51.5,29.88,West,270,3.1,5.6,40,0.00,,---,0.00,VWS V14.01,2013-09-25 00:26:00,
2013-09-24 17:31:00,77.0,50.9,29.88,North,0,6.3,6.3,40,0.00,,---,0.00,VWS V14.01,2013-09-25 00:31:00,
2013-09-24 17:36:00,76.8,51.4,29.88,NW,315,8.1,8.1,41,0.00,,---,0.00,VWS V14.01,2013-09-25 00:36:00,
2013-09-24 17:41:00,76.1,50.7,29.88,NW,315,3.6,5.4,41,0.00,,---,0.00,VWS V14.01,2013-09-25 00:41:00,
2013-09-24 17:46:00,75.6,50.2,29.88,West,270,5.6,6.0,41,0.00,,---,0.00,VWS V14.01,2013-09-25 00:46:00,
2013-09-24 17:51:00,74.7,49.4,29.88,South,180,6.9,6.9,41,0.00,,---,0.00,VWS V14.01,2013-09-25 00:51:00,
2013-09-24 17:56:00,74.1,48.9,29.88,NW,315,8.7,8.7,41,0.00,,---,0.00,VWS V14.01,2013-09-25 00:56:00,
2013-09-24 18:01:00,73.8,49.3,29.88,NW,315,8.7,8.7,42,0.00,,---,0.00,VWS V14.01,2013-09-25 01:01:00,
2013-09-24 18:06:00,73.0,48.6,29.88,NNW,338,4.0,4.3,42,0.00,,---,0.00,VWS V14.01,2013-09-25 01:06:00,
2013-09-24 18:11:00,72.9,48.5,29.88,NW,315,4.3,4.3,42,0.00,,---,0.00,VWS V14.01,2013-09-25 01:11:00,
2013-09-24 18:16:00,72.3,48.0,29.88,West,270,2.0,2.0,42,0.00,,---,0.00,VWS V14.01,2013-09-25 01:16:00,
2013-09-24 18:21:00,71.8,48.1,29.88,West,270,4.3,4.3,43,0.00,,---,0.00,VWS V14.01,2013-09-25 01:21:00,
2013-09-24 18:26:00,71.1,47.5,29.88,NNW,338,2.0,4.3,43,0.00,,---,0.00,VWS V14.01,2013-09-25 01:26:00,
2013-09-24 18:31:00,70.7,47.7,29.88,West,270,2.5,6.5,44,0.00,,---,0.00,VWS V14.01,2013-09-25 01:31:00,
2013-09-24 18:36:00,70.2,47.2,29.88,NW,315,4.7,4.7,44,0.00,,---,0.00,VWS V14.01,2013-09-25 01:36:00,
2013-09-24 18:41:00,69.8,46.9,29.88,SSE,158,3.6,4.7,44,0.00,,---,0.00,VWS V14.01,2013-09-25 01:41:00,
2013-09-24 18:47:00,69.4,47.2,29.88,West,270,2.9,2.9,45,0.00,,---,0.00,VWS V14.01,2013-09-25 01:47:00,
2013-09-24 18:52:00,69.1,46.9,29.88,West,270,2.9,2.9,45,0.00,,---,0.00,VWS V14.01,2013-09-25 01:52:00,
2013-09-24 18:57:00,68.9,46.7,29.88,SSE,158,2.9,2.9,45,0.00,,---,0.00,VWS V14.01,2013-09-25 01:57:00,
2013-09-24 19:02:00,68.2,46.0,29.88,SSE,158,2.9,2.9,45,0.00,,---,0.00,VWS V14.01,2013-09-25 02:02:00,
2013-09-24 19:07:00,67.8,46.3,29.88,SSE,158,2.9,2.9,46,0.00,,---,0.00,VWS V14.01,2013-09-25 02:07:00,
2013-09-24 19:12:00,67.6,46.1,29.88,SSE,158,2.9,2.9,46,0.00,,---,0.00,VWS V14.01,2013-09-25 02:12:00,
2013-09-24 19:17:00,67.3,46.4,29.88,SSE,158,2.9,2.9,47,0.00,,---,0.00,VWS V14.01,2013-09-25 02:17:00,
2013-09-24 19:22:00,67.1,46.2,29.88,NNW,338,4.7,4.7,47,0.00,,---,0.00,VWS V14.01,2013-09-25 02:22:00,
2013-09-24 19:27:00,66.7,46.5,29.88,North,0,3.4,3.4,48,0.00,,---,0.00,VWS V14.01,2013-09-25 02:27:00,
2013-09-24 19:32:00,66.6,46.3,29.88,NNE,22,2.9,3.6,48,0.00,,---,0.00,VWS V14.01,2013-09-25 02:32:00,
2013-09-24 19:37:00,66.4,46.1,29.88,West,270,3.8,6.0,48,0.00,,---,0.00,VWS V14.01,2013-09-25 02:37:00,
2013-09-24 19:42:00,66.0,46.3,29.88,NNW,338,7.8,10.3,49,0.00,,---,0.00,VWS V14.01,2013-09-25 02:42:00,
2013-09-24 19:47:00,65.8,45.6,29.88,North,0,6.5,7.8,48,0.00,,---,0.00,VWS V14.01,2013-09-25 02:47:00,
2013-09-24 19:52:00,65.7,46.0,29.88,NNE,22,6.3,6.3,49,0.00,,---,0.00,VWS V14.01,2013-09-25 02:52:00,
2013-09-24 19:57:00,65.3,45.7,29.88,NNW,338,6.0,6.0,49,0.00,,---,0.00,VWS V14.01,2013-09-25 02:57:00,
2013-09-24 20:02:00,64.9,45.3,29.88,WNW,292,4.3,7.6,49,0.00,,---,0.00,VWS V14.01,2013-09-25 03:02:00,
2013-09-24 20:07:00,64.8,45.2,29.91,North,0,7.8,7.8,49,0.00,,---,0.00,VWS V14.01,2013-09-25 03:07:00,
2013-09-24 20:12:00,64.4,44.8,29.91,NW,315,7.6,11.0,49,0.00,,---,0.00,VWS V14.01,2013-09-25 03:12:00,
2013-09-24 20:17:00,64.2,44.7,29.91,WNW,292,7.2,7.8,49,0.00,,---,0.00,VWS V14.01,2013-09-25 03:17:00,
2013-09-24 20:22:00,64.0,45.0,29.91,NW,315,4.9,7.2,50,0.00,,---,0.00,VWS V14.01,2013-09-25 03:22:00,
2013-09-24 20:27:00,63.9,44.9,29.91,NW,315,4.9,4.9,50,0.00,,---,0.00,VWS V14.01,2013-09-25 03:27:00,
2013-09-24 20:32:00,63.5,44.5,29.91,NW,315,8.1,8.1,50,0.00,,---,0.00,VWS V14.01,2013-09-25 03:32:00,
2013-09-24 20:37:00,63.3,44.4,29.91,NNW,338,3.6,8.1,50,0.00,,---,0.00,VWS V14.01,2013-09-25 03:37:00,
2013-09-24 20:42:00,63.1,44.7,29.91,WNW,292,4.0,5.6,51,0.00,,---,0.00,VWS V14.01,2013-09-25 03:42:00,
2013-09-24 20:47:00,63.0,44.6,29.91,West,270,6.0,6.0,51,0.00,,---,0.00,VWS V14.01,2013-09-25 03:47:00,
2013-09-24 20:52:00,62.8,44.4,29.91,NW,315,7.6,7.6,51,0.00,,---,0.00,VWS V14.01,2013-09-25 03:52:00,
2013-09-24 20:57:00,62.6,44.2,29.91,West,270,6.0,7.8,51,0.00,,---,0.00,VWS V14.01,2013-09-25 03:57:00,
2013-09-24 21:01:00,62.6,44.8,29.91,WNW,292,8.7,8.7,52,0.00,,---,0.00,VWS V14.01,2013-09-25 04:01:00,
2013-09-24 21:02:00,62.4,44.6,29.91,NW,315,6.0,8.7,52,0.00,,---,0.00,VWS V14.01,2013-09-25 04:02:00,
2013-09-24 21:03:00,62.4,44.6,29.91,NW,315,5.4,8.7,52,0.00,,---,0.00,VWS V14.01,2013-09-25 04:03:00,
2013-09-24 21:05:00,62.4,44.6,29.91,NNE,22,3.6,5.4,52,0.00,,---,0.00,VWS V14.01,2013-09-25 04:05:00,
2013-09-24 21:07:00,62.2,44.9,29.91,NW,315,5.4,5.4,53,0.00,,---,0.00,VWS V14.01,2013-09-25 04:07:00,
2013-09-24 21:12:00,62.1,44.8,29.91,West,270,5.6,5.6,53,0.00,,---,0.00,VWS V14.01,2013-09-25 04:12:00,
2013-09-24 21:17:00,61.9,44.6,29.91,NW,315,3.6,7.6,53,0.00,,---,0.00,VWS V14.01,2013-09-25 04:17:00,
2013-09-24 21:22:00,61.9,44.6,29.91,WNW,292,8.1,8.1,53,0.00,,---,0.00,VWS V14.01,2013-09-25 04:22:00,
2013-09-24 21:27:00,61.7,44.4,29.91,NW,315,3.1,6.0,53,0.00,,---,0.00,VWS V14.01,2013-09-25 04:27:00,
2013-09-24 21:32:00,61.5,44.7,29.91,North,0,7.4,9.6,54,0.00,,---,0.00,VWS V14.01,2013-09-25 04:32:00,
2013-09-24 21:37:00,61.3,44.6,29.91,NW,315,4.9,7.4,54,0.00,,---,0.00,VWS V14.01,2013-09-25 04:37:00,
2013-09-24 21:42:00,61.2,44.4,29.91,NW,315,4.5,4.9,54,0.00,,---,0.00,VWS V14.01,2013-09-25 04:42:00,
2013-09-24 21:47:00,61.0,44.2,29.91,WNW,292,3.8,5.6,54,0.00,,---,0.00,VWS V14.01,2013-09-25 04:47:00,
2013-09-24 21:52:00,60.8,44.5,29.91,North,0,2.5,3.8,55,0.00,,---,0.00,VWS V14.01,2013-09-25 04:52:00,
2013-09-24 21:57:00,60.8,44.5,29.91,West,270,2.5,3.4,55,0.00,,---,0.00,VWS V14.01,2013-09-25 04:57:00,
2013-09-24 22:02:00,60.6,44.4,29.91,NNW,338,12.3,12.3,55,0.00,,---,0.00,VWS V14.01,2013-09-25 05:02:00,
2013-09-24 22:07:00,60.4,44.7,29.91,North,0,1.3,12.3,56,0.00,,---,0.00,VWS V14.01,2013-09-25 05:07:00,
2013-09-24 22:12:00,60.3,44.5,29.91,WNW,292,3.1,5.4,56,0.00,,---,0.00,VWS V14.01,2013-09-25 05:12:00,
2013-09-24 22:17:00,60.3,44.5,29.91,WNW,292,4.0,4.0,56,0.00,,---,0.00,VWS V14.01,2013-09-25 05:17:00,
2013-09-24 22:22:00,60.1,44.3,29.91,NNW,338,3.4,4.0,56,0.00,,---,0.00,VWS V14.01,2013-09-25 05:22:00,
2013-09-24 22:27:00,60.1,44.3,29.91,West,270,2.9,5.4,56,0.00,,---,0.00,VWS V14.01,2013-09-25 05:27:00,
2013-09-24 22:32:00,59.9,44.2,29.91,WNW,292,4.3,5.4,56,0.00,,---,0.00,VWS V14.01,2013-09-25 05:32:00,
2013-09-24 22:37:00,59.7,44.5,29.91,NE,45,2.7,4.9,57,0.00,,---,0.00,VWS V14.01,2013-09-25 05:37:00,
2013-09-24 22:42:00,59.5,44.3,29.91,North,0,3.1,3.1,57,0.00,,---,0.00,VWS V14.01,2013-09-25 05:42:00,
2013-09-24 22:47:00,59.4,44.1,29.91,NNW,338,2.0,3.8,57,0.00,,---,0.00,VWS V14.01,2013-09-25 05:47:00,
2013-09-24 22:52:00,59.4,44.1,29.91,North,0,0.9,4.9,57,0.00,,---,0.00,VWS V14.01,2013-09-25 05:52:00,
2013-09-24 22:57:00,59.2,44.0,29.91,NNW,338,1.3,2.9,57,0.00,,---,0.00,VWS V14.01,2013-09-25 05:57:00,
2013-09-24 23:02:00,58.8,44.1,29.91,NW,315,1.1,1.6,58,0.00,,---,0.00,VWS V14.01,2013-09-25 06:02:00,
2013-09-24 23:07:00,58.8,44.1,29.91,NNW,338,1.6,3.4,58,0.00,,---,0.00,VWS V14.01,2013-09-25 06:07:00,
2013-09-24 23:12:00,58.6,43.9,29.91,NW,315,3.6,3.6,58,0.00,,---,0.00,VWS V14.01,2013-09-25 06:12:00,
2013-09-24 23:17:00,58.6,43.9,29.91,NNW,338,4.3,4.7,58,0.00,,---,0.00,VWS V14.01,2013-09-25 06:17:00,
2013-09-24 23:22:00,58.6,43.9,29.91,North,0,1.1,3.1,58,0.00,,---,0.00,VWS V14.01,2013-09-25 06:22:00,
2013-09-24 23:27:00,58.5,43.8,29.91,NNW,338,2.0,2.2,58,0.00,,---,0.00,VWS V14.01,2013-09-25 06:27:00,
2013-09-24 23:32:00,58.1,43.9,29.91,NW,315,0.0,2.0,59,0.00,,---,0.00,VWS V14.01,2013-09-25 06:32:00,
2013-09-24 23:37:00,57.9,43.7,29.91,NW,315,0.0,2.0,59,0.00,,---,0.00,VWS V14.01,2013-09-25 06:37:00,
2013-09-24 23:42:00,57.9,43.7,29.91,NE,45,0.0,4.3,59,0.00,,---,0.00,VWS V14.01,2013-09-25 06:42:00,
2013-09-24 23:47:00,57.6,43.4,29.91,WNW,292,0.0,1.3,59,0.00,,---,0.00,VWS V14.01,2013-09-25 06:47:00,
2013-09-24 23:52:00,57.6,43.4,29.91,North,0,0.0,6.0,59,0.00,,---,0.00,VWS V14.01,2013-09-25 06:52:00,
2013-09-24 23:57:00,57.6,43.8,29.91,WNW,292,1.3,3.4,60,0.00,,---,0.00,VWS V14.01,2013-09-25 06:57:00,